sensor_id;sensor_type;location;lat;lon;timestamp;temperature;humidity
72380;SHT30;60354;47.798;12.472;2022-08-07T00:01:10;17.60;86.05
72380;SHT30;60354;47.798;12.472;2022-08-07T00:03:36;17.55;86.37
72380;SHT30;60354;47.798;12.472;2022-08-07T00:06:02;17.60;86.19
72380;SHT30;60354;47.798;12.472;2022-08-07T00:08:31;17.60;86.11
72380;SHT30;60354;47.798;12.472;2022-08-07T00:10:57;17.61;85.91
72380;SHT30;60354;47.798;12.472;2022-08-07T00:13:23;17.55;86.51
72380;SHT30;60354;47.798;12.472;2022-08-07T00:15:50;17.37;86.89
72380;SHT30;60354;47.798;12.472;2022-08-07T00:18:19;17.40;86.57
72380;SHT30;60354;47.798;12.472;2022-08-07T00:20:44;17.44;86.71
72380;SHT30;60354;47.798;12.472;2022-08-07T00:23:10;17.53;86.32
72380;SHT30;60354;47.798;12.472;2022-08-07T00:25:36;17.58;86.08
72380;SHT30;60354;47.798;12.472;2022-08-07T00:28:02;17.61;85.41
72380;SHT30;60354;47.798;12.472;2022-08-07T00:30:28;17.55;85.63
72380;SHT30;60354;47.798;12.472;2022-08-07T00:32:55;17.46;85.68
72380;SHT30;60354;47.798;12.472;2022-08-07T00:35:22;17.47;85.25
72380;SHT30;60354;47.798;12.472;2022-08-07T00:37:47;17.41;85.29
72380;SHT30;60354;47.798;12.472;2022-08-07T00:40:14;17.43;84.94
72380;SHT30;60354;47.798;12.472;2022-08-07T00:42:39;17.47;84.50
72380;SHT30;60354;47.798;12.472;2022-08-07T00:45:06;17.48;85.03
72380;SHT30;60354;47.798;12.472;2022-08-07T00:47:33;17.54;84.44
72380;SHT30;60354;47.798;12.472;2022-08-07T00:49:58;17.55;84.59
72380;SHT30;60354;47.798;12.472;2022-08-07T00:52:24;17.61;84.16
72380;SHT30;60354;47.798;12.472;2022-08-07T00:54:50;17.64;84.11
72380;SHT30;60354;47.798;12.472;2022-08-07T00:57:16;17.64;84.37
72380;SHT30;60354;47.798;12.472;2022-08-07T00:59:42;17.67;84.18
72380;SHT30;60354;47.798;12.472;2022-08-07T01:02:09;17.68;84.57
72380;SHT30;60354;47.798;12.472;2022-08-07T01:04:36;17.48;84.99
72380;SHT30;60354;47.798;12.472;2022-08-07T01:07:02;17.40;85.53
72380;SHT30;60354;47.798;12.472;2022-08-07T01:09:28;17.33;85.51
72380;SHT30;60354;47.798;12.472;2022-08-07T01:11:54;17.30;85.40
72380;SHT30;60354;47.798;12.472;2022-08-07T01:14:21;17.24;85.79
72380;SHT30;60354;47.798;12.472;2022-08-07T01:16:47;17.20;85.51
72380;SHT30;60354;47.798;12.472;2022-08-07T01:19:16;17.12;85.29
72380;SHT30;60354;47.798;12.472;2022-08-07T01:21:43;17.12;85.91
72380;SHT30;60354;47.798;12.472;2022-08-07T01:24:09;17.19;84.89
72380;SHT30;60354;47.798;12.472;2022-08-07T01:26:35;17.24;84.72
72380;SHT30;60354;47.798;12.472;2022-08-07T01:29:02;17.26;84.52
72380;SHT30;60354;47.798;12.472;2022-08-07T01:31:29;17.20;84.43
72380;SHT30;60354;47.798;12.472;2022-08-07T01:34:00;17.23;83.63
72380;SHT30;60354;47.798;12.472;2022-08-07T01:36:31;17.16;83.86
72380;SHT30;60354;47.798;12.472;2022-08-07T01:38:58;17.09;83.91
72380;SHT30;60354;47.798;12.472;2022-08-07T01:41:24;17.12;84.15
72380;SHT30;60354;47.798;12.472;2022-08-07T01:43:51;17.10;84.29
72380;SHT30;60354;47.798;12.472;2022-08-07T01:46:19;16.97;83.54
72380;SHT30;60354;47.798;12.472;2022-08-07T01:48:46;16.89;83.69
72380;SHT30;60354;47.798;12.472;2022-08-07T01:51:23;16.76;84.14
72380;SHT30;60354;47.798;12.472;2022-08-07T01:53:55;16.85;84.21
72380;SHT30;60354;47.798;12.472;2022-08-07T01:56:47;16.86;84.20
72380;SHT30;60354;47.798;12.472;2022-08-07T01:59:17;16.90;83.94
72380;SHT30;60354;47.798;12.472;2022-08-07T02:01:53;16.86;83.98
72380;SHT30;60354;47.798;12.472;2022-08-07T02:04:25;16.83;83.98
72380;SHT30;60354;47.798;12.472;2022-08-07T02:06:58;16.76;83.83
72380;SHT30;60354;47.798;12.472;2022-08-07T02:09:27;16.73;84.27
72380;SHT30;60354;47.798;12.472;2022-08-07T02:11:55;16.76;83.63
72380;SHT30;60354;47.798;12.472;2022-08-07T02:14:25;16.80;83.80
72380;SHT30;60354;47.798;12.472;2022-08-07T02:16:53;16.69;83.46
72380;SHT30;60354;47.798;12.472;2022-08-07T02:19:20;16.80;83.76
72380;SHT30;60354;47.798;12.472;2022-08-07T02:21:46;16.85;83.18
72380;SHT30;60354;47.798;12.472;2022-08-07T02:24:14;16.76;83.37
72380;SHT30;60354;47.798;12.472;2022-08-07T02:26:41;16.80;83.51
72380;SHT30;60354;47.798;12.472;2022-08-07T02:29:08;16.75;83.60
72380;SHT30;60354;47.798;12.472;2022-08-07T02:31:35;16.79;83.77
72380;SHT30;60354;47.798;12.472;2022-08-07T02:34:03;16.75;83.74
72380;SHT30;60354;47.798;12.472;2022-08-07T02:36:32;16.80;83.41
72380;SHT30;60354;47.798;12.472;2022-08-07T02:39:05;16.90;83.49
72380;SHT30;60354;47.798;12.472;2022-08-07T02:41:32;16.87;83.50
72380;SHT30;60354;47.798;12.472;2022-08-07T02:43:58;16.93;83.20
72380;SHT30;60354;47.798;12.472;2022-08-07T02:46:25;16.99;83.56
72380;SHT30;60354;47.798;12.472;2022-08-07T02:48:54;17.00;83.12
72380;SHT30;60354;47.798;12.472;2022-08-07T02:51:20;17.05;82.42
72380;SHT30;60354;47.798;12.472;2022-08-07T02:53:48;16.97;82.46
72380;SHT30;60354;47.798;12.472;2022-08-07T02:56:20;16.93;82.49
72380;SHT30;60354;47.798;12.472;2022-08-07T02:58:49;16.83;82.68
72380;SHT30;60354;47.798;12.472;2022-08-07T03:01:17;16.89;83.42
72380;SHT30;60354;47.798;12.472;2022-08-07T03:03:45;16.79;84.89
72380;SHT30;60354;47.798;12.472;2022-08-07T03:06:13;16.83;84.51
72380;SHT30;60354;47.798;12.472;2022-08-07T03:08:40;16.82;83.99
72380;SHT30;60354;47.798;12.472;2022-08-07T03:11:07;16.82;84.35
72380;SHT30;60354;47.798;12.472;2022-08-07T03:13:37;16.75;83.77
72380;SHT30;60354;47.798;12.472;2022-08-07T03:16:03;16.76;83.43
72380;SHT30;60354;47.798;12.472;2022-08-07T03:18:30;16.76;84.03
72380;SHT30;60354;47.798;12.472;2022-08-07T03:20:56;16.83;83.29
72380;SHT30;60354;47.798;12.472;2022-08-07T03:23:22;16.90;82.95
72380;SHT30;60354;47.798;12.472;2022-08-07T03:25:49;16.89;82.31
72380;SHT30;60354;47.798;12.472;2022-08-07T03:28:16;16.83;82.53
72380;SHT30;60354;47.798;12.472;2022-08-07T03:30:44;16.90;83.08
72380;SHT30;60354;47.798;12.472;2022-08-07T03:33:11;16.90;83.51
72380;SHT30;60354;47.798;12.472;2022-08-07T03:35:38;16.92;83.86
72380;SHT30;60354;47.798;12.472;2022-08-07T03:38:06;16.96;84.29
72380;SHT30;60354;47.798;12.472;2022-08-07T03:40:33;16.97;84.14
72380;SHT30;60354;47.798;12.472;2022-08-07T03:43:00;16.96;83.41
72380;SHT30;60354;47.798;12.472;2022-08-07T03:45:27;16.97;83.40
72380;SHT30;60354;47.798;12.472;2022-08-07T03:47:58;16.92;83.88
72380;SHT30;60354;47.798;12.472;2022-08-07T03:50:25;16.87;84.16
72380;SHT30;60354;47.798;12.472;2022-08-07T03:52:55;16.89;83.46
72380;SHT30;60354;47.798;12.472;2022-08-07T03:55:22;16.92;83.60
72380;SHT30;60354;47.798;12.472;2022-08-07T03:57:49;16.93;83.82
72380;SHT30;60354;47.798;12.472;2022-08-07T04:00:16;16.92;83.81
72380;SHT30;60354;47.798;12.472;2022-08-07T04:02:46;16.83;84.10
72380;SHT30;60354;47.798;12.472;2022-08-07T04:05:20;16.83;84.47
72380;SHT30;60354;47.798;12.472;2022-08-07T04:07:47;16.83;83.94
72380;SHT30;60354;47.798;12.472;2022-08-07T04:10:18;16.82;84.01
72380;SHT30;60354;47.798;12.472;2022-08-07T04:12:45;16.79;84.30
72380;SHT30;60354;47.798;12.472;2022-08-07T04:15:11;16.80;83.72
72380;SHT30;60354;47.798;12.472;2022-08-07T04:17:38;16.69;83.38
72380;SHT30;60354;47.798;12.472;2022-08-07T04:20:10;16.66;84.33
72380;SHT30;60354;47.798;12.472;2022-08-07T04:22:41;16.72;84.43
72380;SHT30;60354;47.798;12.472;2022-08-07T04:25:07;16.69;84.98
72380;SHT30;60354;47.798;12.472;2022-08-07T04:27:34;16.75;84.66
72380;SHT30;60354;47.798;12.472;2022-08-07T04:30:00;16.79;84.49
72380;SHT30;60354;47.798;12.472;2022-08-07T04:32:33;16.90;84.44
72380;SHT30;60354;47.798;12.472;2022-08-07T04:35:01;16.90;83.82
72380;SHT30;60354;47.798;12.472;2022-08-07T04:37:27;16.96;83.74
72380;SHT30;60354;47.798;12.472;2022-08-07T04:39:52;16.99;83.31
72380;SHT30;60354;47.798;12.472;2022-08-07T04:42:18;16.96;83.46
72380;SHT30;60354;47.798;12.472;2022-08-07T04:44:44;16.95;83.59
72380;SHT30;60354;47.798;12.472;2022-08-07T04:47:20;16.99;83.83
72380;SHT30;60354;47.798;12.472;2022-08-07T04:49:59;16.97;83.45
72380;SHT30;60354;47.798;12.472;2022-08-07T04:58:19;16.54;85.01
72380;SHT30;60354;47.798;12.472;2022-08-07T05:01:19;16.49;85.00
72380;SHT30;60354;47.798;12.472;2022-08-07T05:03:54;16.54;85.03
72380;SHT30;60354;47.798;12.472;2022-08-07T05:09:31;16.61;83.85
72380;SHT30;60354;47.798;12.472;2022-08-07T05:12:04;16.48;84.59
72380;SHT30;60354;47.798;12.472;2022-08-07T05:14:43;16.45;84.34
72380;SHT30;60354;47.798;12.472;2022-08-07T05:17:13;16.40;84.53
72380;SHT30;60354;47.798;12.472;2022-08-07T05:19:43;16.35;84.76
72380;SHT30;60354;47.798;12.472;2022-08-07T05:22:11;16.48;84.59
72380;SHT30;60354;47.798;12.472;2022-08-07T05:24:40;16.47;84.53
72380;SHT30;60354;47.798;12.472;2022-08-07T05:27:08;16.45;84.32
72380;SHT30;60354;47.798;12.472;2022-08-07T05:29:37;16.44;84.31
72380;SHT30;60354;47.798;12.472;2022-08-07T05:32:06;16.40;84.38
72380;SHT30;60354;47.798;12.472;2022-08-07T05:34:35;16.44;84.38
72380;SHT30;60354;47.798;12.472;2022-08-07T05:37:01;16.49;84.38
72380;SHT30;60354;47.798;12.472;2022-08-07T05:39:40;16.62;83.67
72380;SHT30;60354;47.798;12.472;2022-08-07T05:42:05;16.75;83.44
72380;SHT30;60354;47.798;12.472;2022-08-07T05:44:35;16.86;83.06
72380;SHT30;60354;47.798;12.472;2022-08-07T05:47:02;16.92;82.91
72380;SHT30;60354;47.798;12.472;2022-08-07T05:49:28;17.03;83.10
72380;SHT30;60354;47.798;12.472;2022-08-07T05:51:55;17.09;83.07
72380;SHT30;60354;47.798;12.472;2022-08-07T05:54:22;17.22;82.79
72380;SHT30;60354;47.798;12.472;2022-08-07T05:56:48;17.10;82.16
72380;SHT30;60354;47.798;12.472;2022-08-07T05:59:18;17.17;81.94
72380;SHT30;60354;47.798;12.472;2022-08-07T06:01:49;16.97;82.74
72380;SHT30;60354;47.798;12.472;2022-08-07T06:04:18;16.89;82.43
72380;SHT30;60354;47.798;12.472;2022-08-07T06:06:45;16.99;82.72
72380;SHT30;60354;47.798;12.472;2022-08-07T06:09:13;16.96;82.88
72380;SHT30;60354;47.798;12.472;2022-08-07T06:11:43;17.02;82.40
72380;SHT30;60354;47.798;12.472;2022-08-07T06:14:09;17.09;82.70
72380;SHT30;60354;47.798;12.472;2022-08-07T06:16:37;17.15;82.32
72380;SHT30;60354;47.798;12.472;2022-08-07T06:19:04;17.26;82.11
72380;SHT30;60354;47.798;12.472;2022-08-07T06:21:32;17.34;81.68
72380;SHT30;60354;47.798;12.472;2022-08-07T06:23:58;17.40;81.09
72380;SHT30;60354;47.798;12.472;2022-08-07T06:26:25;17.46;80.93
72380;SHT30;60354;47.798;12.472;2022-08-07T06:28:54;17.34;81.31
72380;SHT30;60354;47.798;12.472;2022-08-07T06:31:21;17.30;81.42
72380;SHT30;60354;47.798;12.472;2022-08-07T06:33:47;17.34;81.71
72380;SHT30;60354;47.798;12.472;2022-08-07T06:36:14;17.24;81.44
72380;SHT30;60354;47.798;12.472;2022-08-07T06:38:49;17.17;81.45
72380;SHT30;60354;47.798;12.472;2022-08-07T06:41:25;17.23;81.68
72380;SHT30;60354;47.798;12.472;2022-08-07T06:43:53;17.44;80.63
72380;SHT30;60354;47.798;12.472;2022-08-07T06:46:23;17.51;80.92
72380;SHT30;60354;47.798;12.472;2022-08-07T06:48:49;17.44;80.64
72380;SHT30;60354;47.798;12.472;2022-08-07T06:51:25;17.48;80.74
72380;SHT30;60354;47.798;12.472;2022-08-07T06:53:54;17.34;81.58
72380;SHT30;60354;47.798;12.472;2022-08-07T06:56:22;17.48;81.13
72380;SHT30;60354;47.798;12.472;2022-08-07T06:59:11;17.61;80.60
72380;SHT30;60354;47.798;12.472;2022-08-07T07:01:42;17.44;81.21
72380;SHT30;60354;47.798;12.472;2022-08-07T07:04:09;17.50;80.99
72380;SHT30;60354;47.798;12.472;2022-08-07T07:06:38;17.57;80.82
72380;SHT30;60354;47.798;12.472;2022-08-07T07:09:24;17.64;80.51
72380;SHT30;60354;47.798;12.472;2022-08-07T07:14:33;17.58;80.58
72380;SHT30;60354;47.798;12.472;2022-08-07T07:17:05;17.54;80.68
72380;SHT30;60354;47.798;12.472;2022-08-07T07:19:39;17.64;80.52
72380;SHT30;60354;47.798;12.472;2022-08-07T07:22:09;17.51;81.04
72380;SHT30;60354;47.798;12.472;2022-08-07T07:24:34;17.46;81.16
72380;SHT30;60354;47.798;12.472;2022-08-07T07:27:02;17.46;81.41
72380;SHT30;60354;47.798;12.472;2022-08-07T07:29:32;17.63;81.09
72380;SHT30;60354;47.798;12.472;2022-08-07T07:32:01;17.60;81.56
72380;SHT30;60354;47.798;12.472;2022-08-07T07:34:29;17.57;80.57
72380;SHT30;60354;47.798;12.472;2022-08-07T07:36:57;17.47;81.24
72380;SHT30;60354;47.798;12.472;2022-08-07T07:39:25;17.47;81.82
72380;SHT30;60354;47.798;12.472;2022-08-07T07:41:50;17.44;81.71
72380;SHT30;60354;47.798;12.472;2022-08-07T07:44:17;17.71;81.16
72380;SHT30;60354;47.798;12.472;2022-08-07T07:46:47;17.81;81.33
72380;SHT30;60354;47.798;12.472;2022-08-07T07:49:14;17.71;81.08
72380;SHT30;60354;47.798;12.472;2022-08-07T07:51:41;17.78;81.03
72380;SHT30;60354;47.798;12.472;2022-08-07T07:54:08;17.84;80.57
72380;SHT30;60354;47.798;12.472;2022-08-07T07:56:37;17.85;80.66
72380;SHT30;60354;47.798;12.472;2022-08-07T07:59:04;17.84;80.60
72380;SHT30;60354;47.798;12.472;2022-08-07T08:01:31;18.08;79.99
72380;SHT30;60354;47.798;12.472;2022-08-07T08:04:00;18.26;79.05
72380;SHT30;60354;47.798;12.472;2022-08-07T08:06:27;18.13;79.83
72380;SHT30;60354;47.798;12.472;2022-08-07T08:08:54;18.25;79.78
72380;SHT30;60354;47.798;12.472;2022-08-07T08:11:20;18.37;78.97
72380;SHT30;60354;47.798;12.472;2022-08-07T08:13:47;18.40;78.76
72380;SHT30;60354;47.798;12.472;2022-08-07T08:16:18;18.52;78.73
72380;SHT30;60354;47.798;12.472;2022-08-07T08:18:46;18.35;78.68
72380;SHT30;60354;47.798;12.472;2022-08-07T08:21:16;18.18;78.10
72380;SHT30;60354;47.798;12.472;2022-08-07T08:24:03;18.10;79.13
72380;SHT30;60354;47.798;12.472;2022-08-07T08:26:52;18.18;79.10
72380;SHT30;60354;47.798;12.472;2022-08-07T08:30:04;18.02;79.13
72380;SHT30;60354;47.798;12.472;2022-08-07T08:32:34;17.92;78.88
72380;SHT30;60354;47.798;12.472;2022-08-07T08:35:01;18.01;79.15
72380;SHT30;60354;47.798;12.472;2022-08-07T08:37:29;17.94;78.67
72380;SHT30;60354;47.798;12.472;2022-08-07T08:39:56;18.01;79.37
72380;SHT30;60354;47.798;12.472;2022-08-07T08:42:25;18.19;78.59
72380;SHT30;60354;47.798;12.472;2022-08-07T08:45:28;18.13;77.91
72380;SHT30;60354;47.798;12.472;2022-08-07T08:51:09;18.30;78.03
72380;SHT30;60354;47.798;12.472;2022-08-07T08:53:55;18.39;77.45
72380;SHT30;60354;47.798;12.472;2022-08-07T08:56:27;18.24;77.49
72380;SHT30;60354;47.798;12.472;2022-08-07T09:01:33;18.45;76.67
72380;SHT30;60354;47.798;12.472;2022-08-07T09:04:06;18.52;76.43
72380;SHT30;60354;47.798;12.472;2022-08-07T09:16:50;18.64;75.34
72380;SHT30;60354;47.798;12.472;2022-08-07T09:38:11;18.98;75.34
72380;SHT30;60354;47.798;12.472;2022-08-07T09:43:25;19.21;75.14
72380;SHT30;60354;47.798;12.472;2022-08-07T09:54:02;19.68;72.16
72380;SHT30;60354;47.798;12.472;2022-08-07T09:56:49;19.83;72.47
72380;SHT30;60354;47.798;12.472;2022-08-07T10:11:05;20.38;70.41
72380;SHT30;60354;47.798;12.472;2022-08-07T10:22:01;20.36;69.49
72380;SHT30;60354;47.798;12.472;2022-08-07T10:27:35;20.52;69.96
72380;SHT30;60354;47.798;12.472;2022-08-07T10:30:06;20.75;70.50
72380;SHT30;60354;47.798;12.472;2022-08-07T10:35:33;20.69;69.94
72380;SHT30;60354;47.798;12.472;2022-08-07T10:43:40;20.74;69.29
72380;SHT30;60354;47.798;12.472;2022-08-07T10:46:17;20.82;69.47
72380;SHT30;60354;47.798;12.472;2022-08-07T10:57:14;20.48;69.61
72380;SHT30;60354;47.798;12.472;2022-08-07T11:00:09;20.54;70.40
72380;SHT30;60354;47.798;12.472;2022-08-07T11:05:30;20.82;69.26
72380;SHT30;60354;47.798;12.472;2022-08-07T11:10:38;21.09;68.13
72380;SHT30;60354;47.798;12.472;2022-08-07T11:13:45;21.32;67.17
72380;SHT30;60354;47.798;12.472;2022-08-07T11:16:19;21.53;68.37
72380;SHT30;60354;47.798;12.472;2022-08-07T11:19:01;21.51;67.93
72380;SHT30;60354;47.798;12.472;2022-08-07T11:21:52;21.74;67.98
72380;SHT30;60354;47.798;12.472;2022-08-07T11:27:03;22.08;66.45
72380;SHT30;60354;47.798;12.472;2022-08-07T11:29:42;21.83;66.05
72380;SHT30;60354;47.798;12.472;2022-08-07T11:41:21;21.78;67.18
72380;SHT30;60354;47.798;12.472;2022-08-07T11:57:08;22.08;65.20
72380;SHT30;60354;47.798;12.472;2022-08-07T12:07:35;21.98;64.58
72380;SHT30;60354;47.798;12.472;2022-08-07T12:10:07;22.15;65.34
72380;SHT30;60354;47.798;12.472;2022-08-07T12:12:41;22.00;65.25
72380;SHT30;60354;47.798;12.472;2022-08-07T12:15:15;22.21;64.45
72380;SHT30;60354;47.798;12.472;2022-08-07T12:18:04;22.41;64.43
72380;SHT30;60354;47.798;12.472;2022-08-07T12:20:40;22.31;63.58
72380;SHT30;60354;47.798;12.472;2022-08-07T12:29:22;22.62;63.39
72380;SHT30;60354;47.798;12.472;2022-08-07T12:32:00;22.55;62.55
72380;SHT30;60354;47.798;12.472;2022-08-07T12:34:30;22.21;63.85
72380;SHT30;60354;47.798;12.472;2022-08-07T12:36:58;22.34;63.68
72380;SHT30;60354;47.798;12.472;2022-08-07T12:39:25;22.38;63.77
72380;SHT30;60354;47.798;12.472;2022-08-07T12:41:54;22.24;63.92
72380;SHT30;60354;47.798;12.472;2022-08-07T12:44:20;22.05;63.99
72380;SHT30;60354;47.798;12.472;2022-08-07T12:49:56;21.68;65.24
72380;SHT30;60354;47.798;12.472;2022-08-07T12:55:03;21.56;65.64
72380;SHT30;60354;47.798;12.472;2022-08-07T12:57:33;21.71;65.39
72380;SHT30;60354;47.798;12.472;2022-08-07T13:00:03;21.88;64.83
72380;SHT30;60354;47.798;12.472;2022-08-07T13:17:12;22.27;64.41
72380;SHT30;60354;47.798;12.472;2022-08-07T13:20:15;22.00;63.84
72380;SHT30;60354;47.798;12.472;2022-08-07T13:22:49;21.86;63.69
72380;SHT30;60354;47.798;12.472;2022-08-07T13:25:29;22.09;63.30
72380;SHT30;60354;47.798;12.472;2022-08-07T13:28:02;22.25;63.85
72380;SHT30;60354;47.798;12.472;2022-08-07T13:30:30;22.27;63.65
72380;SHT30;60354;47.798;12.472;2022-08-07T13:32:58;22.15;63.24
72380;SHT30;60354;47.798;12.472;2022-08-07T13:35:38;22.34;62.92
72380;SHT30;60354;47.798;12.472;2022-08-07T13:38:41;22.51;62.90
72380;SHT30;60354;47.798;12.472;2022-08-07T13:44:00;22.45;62.22
72380;SHT30;60354;47.798;12.472;2022-08-07T13:46:30;22.59;62.33
72380;SHT30;60354;47.798;12.472;2022-08-07T13:48:59;22.55;62.74
72380;SHT30;60354;47.798;12.472;2022-08-07T13:51:27;22.69;61.76
72380;SHT30;60354;47.798;12.472;2022-08-07T13:54:06;22.69;61.51
72380;SHT30;60354;47.798;12.472;2022-08-07T13:56:34;22.72;61.93
72380;SHT30;60354;47.798;12.472;2022-08-07T13:59:01;22.60;62.35
72380;SHT30;60354;47.798;12.472;2022-08-07T14:01:29;22.60;62.42
72380;SHT30;60354;47.798;12.472;2022-08-07T14:03:56;22.49;63.25
72380;SHT30;60354;47.798;12.472;2022-08-07T14:06:30;22.60;63.77
72380;SHT30;60354;47.798;12.472;2022-08-07T14:08:56;22.41;62.98
72380;SHT30;60354;47.798;12.472;2022-08-07T14:11:23;22.53;62.73
72380;SHT30;60354;47.798;12.472;2022-08-07T14:13:53;22.51;63.00
72380;SHT30;60354;47.798;12.472;2022-08-07T14:16:32;22.60;63.35
72380;SHT30;60354;47.798;12.472;2022-08-07T14:19:00;22.68;63.31
72380;SHT30;60354;47.798;12.472;2022-08-07T14:21:39;22.60;63.48
72380;SHT30;60354;47.798;12.472;2022-08-07T14:24:25;22.83;61.92
72380;SHT30;60354;47.798;12.472;2022-08-07T14:27:01;22.65;62.70
72380;SHT30;60354;47.798;12.472;2022-08-07T14:29:31;22.70;62.22
72380;SHT30;60354;47.798;12.472;2022-08-07T14:32:03;22.66;62.36
72380;SHT30;60354;47.798;12.472;2022-08-07T14:34:31;22.66;62.78
72380;SHT30;60354;47.798;12.472;2022-08-07T14:37:02;22.39;62.27
72380;SHT30;60354;47.798;12.472;2022-08-07T14:39:30;22.34;63.18
72380;SHT30;60354;47.798;12.472;2022-08-07T14:41:57;22.41;63.57
72380;SHT30;60354;47.798;12.472;2022-08-07T14:44:27;22.49;63.27
72380;SHT30;60354;47.798;12.472;2022-08-07T14:46:55;22.51;63.26
72380;SHT30;60354;47.798;12.472;2022-08-07T14:49:30;22.58;62.68
72380;SHT30;60354;47.798;12.472;2022-08-07T14:51:57;22.68;62.66
72380;SHT30;60354;47.798;12.472;2022-08-07T14:54:28;22.55;62.80
72380;SHT30;60354;47.798;12.472;2022-08-07T14:56:55;22.53;63.12
72380;SHT30;60354;47.798;12.472;2022-08-07T14:59:22;22.39;62.53
72380;SHT30;60354;47.798;12.472;2022-08-07T15:01:49;22.44;63.09
72380;SHT30;60354;47.798;12.472;2022-08-07T15:04:15;22.42;62.96
72380;SHT30;60354;47.798;12.472;2022-08-07T15:06:42;22.53;62.78
72380;SHT30;60354;47.798;12.472;2022-08-07T15:09:14;22.56;62.47
72380;SHT30;60354;47.798;12.472;2022-08-07T15:12:13;22.59;62.91
72380;SHT30;60354;47.798;12.472;2022-08-07T15:14:50;22.45;61.08
72380;SHT30;60354;47.798;12.472;2022-08-07T15:17:19;22.51;61.31
72380;SHT30;60354;47.798;12.472;2022-08-07T15:19:57;22.27;62.95
72380;SHT30;60354;47.798;12.472;2022-08-07T15:22:29;22.22;63.41
72380;SHT30;60354;47.798;12.472;2022-08-07T15:24:56;22.34;63.66
72380;SHT30;60354;47.798;12.472;2022-08-07T15:27:24;22.19;62.42
72380;SHT30;60354;47.798;12.472;2022-08-07T15:29:52;22.27;62.94
72380;SHT30;60354;47.798;12.472;2022-08-07T15:32:20;22.24;62.57
72380;SHT30;60354;47.798;12.472;2022-08-07T15:34:52;22.19;61.35
72380;SHT30;60354;47.798;12.472;2022-08-07T15:37:29;22.25;61.63
72380;SHT30;60354;47.798;12.472;2022-08-07T15:39:58;22.25;62.13
72380;SHT30;60354;47.798;12.472;2022-08-07T15:45:07;22.22;60.69
72380;SHT30;60354;47.798;12.472;2022-08-07T15:47:47;22.27;60.65
72380;SHT30;60354;47.798;12.472;2022-08-07T15:50:19;21.96;60.86
72380;SHT30;60354;47.798;12.472;2022-08-07T15:52:46;21.96;61.32
72380;SHT30;60354;47.798;12.472;2022-08-07T15:55:17;21.88;61.39
72380;SHT30;60354;47.798;12.472;2022-08-07T15:57:46;21.97;62.17
72380;SHT30;60354;47.798;12.472;2022-08-07T16:00:20;22.04;61.95
72380;SHT30;60354;47.798;12.472;2022-08-07T16:02:48;22.12;61.68
72380;SHT30;60354;47.798;12.472;2022-08-07T16:05:19;22.27;60.84
72380;SHT30;60354;47.798;12.472;2022-08-07T16:07:52;22.39;61.21
72380;SHT30;60354;47.798;12.472;2022-08-07T16:10:21;22.38;59.43
72380;SHT30;60354;47.798;12.472;2022-08-07T16:19:22;22.18;59.47
72380;SHT30;60354;47.798;12.472;2022-08-07T16:24:53;21.86;61.16
72380;SHT30;60354;47.798;12.472;2022-08-07T16:27:28;21.90;61.62
72380;SHT30;60354;47.798;12.472;2022-08-07T16:32:31;21.96;61.62
72380;SHT30;60354;47.798;12.472;2022-08-07T16:35:24;21.96;61.58
72380;SHT30;60354;47.798;12.472;2022-08-07T16:52:15;21.68;63.30
72380;SHT30;60354;47.798;12.472;2022-08-07T16:55:00;21.73;63.09
72380;SHT30;60354;47.798;12.472;2022-08-07T16:57:50;21.77;63.63
72380;SHT30;60354;47.798;12.472;2022-08-07T17:00:18;21.73;63.74
72380;SHT30;60354;47.798;12.472;2022-08-07T17:03:18;21.71;63.47
72380;SHT30;60354;47.798;12.472;2022-08-07T17:06:32;21.63;65.50
72380;SHT30;60354;47.798;12.472;2022-08-07T17:11:47;21.25;66.21
72380;SHT30;60354;47.798;12.472;2022-08-07T17:14:15;21.25;65.49
72380;SHT30;60354;47.798;12.472;2022-08-07T17:16:55;21.16;64.95
72380;SHT30;60354;47.798;12.472;2022-08-07T17:19:45;21.15;64.74
72380;SHT30;60354;47.798;12.472;2022-08-07T17:22:18;21.12;64.94
72380;SHT30;60354;47.798;12.472;2022-08-07T17:25:12;21.00;65.07
72380;SHT30;60354;47.798;12.472;2022-08-07T17:27:42;20.94;65.24
72380;SHT30;60354;47.798;12.472;2022-08-07T17:30:11;20.85;65.68
72380;SHT30;60354;47.798;12.472;2022-08-07T17:32:54;20.78;66.35
72380;SHT30;60354;47.798;12.472;2022-08-07T17:38:02;20.71;66.22
72380;SHT30;60354;47.798;12.472;2022-08-07T17:40:43;20.67;66.31
72380;SHT30;60354;47.798;12.472;2022-08-07T17:43:20;20.57;66.31
72380;SHT30;60354;47.798;12.472;2022-08-07T17:45:55;20.51;66.29
72380;SHT30;60354;47.798;12.472;2022-08-07T17:48:25;20.45;65.57
72380;SHT30;60354;47.798;12.472;2022-08-07T17:50:57;20.33;65.64
72380;SHT30;60354;47.798;12.472;2022-08-07T17:56:24;20.24;65.98
72380;SHT30;60354;47.798;12.472;2022-08-07T18:01:32;20.18;66.71
72380;SHT30;60354;47.798;12.472;2022-08-07T18:04:09;20.12;66.78
72380;SHT30;60354;47.798;12.472;2022-08-07T18:06:42;20.03;67.25
72380;SHT30;60354;47.798;12.472;2022-08-07T18:09:18;20.03;66.52
72380;SHT30;60354;47.798;12.472;2022-08-07T18:12:04;20.06;66.53
72380;SHT30;60354;47.798;12.472;2022-08-07T18:19:54;19.83;66.91
72380;SHT30;60354;47.798;12.472;2022-08-07T18:22:23;19.76;67.17
72380;SHT30;60354;47.798;12.472;2022-08-07T18:24:53;19.76;67.47
72380;SHT30;60354;47.798;12.472;2022-08-07T18:43:52;19.12;67.78
72380;SHT30;60354;47.798;12.472;2022-08-07T18:46:27;19.08;67.42
72380;SHT30;60354;47.798;12.472;2022-08-07T18:49:15;19.04;67.55
72380;SHT30;60354;47.798;12.472;2022-08-07T18:51:55;19.06;67.54
72380;SHT30;60354;47.798;12.472;2022-08-07T18:54:44;19.10;68.43
72380;SHT30;60354;47.798;12.472;2022-08-07T18:57:32;19.19;68.33
72380;SHT30;60354;47.798;12.472;2022-08-07T19:00:32;19.32;68.70
72380;SHT30;60354;47.798;12.472;2022-08-07T19:03:11;19.42;68.20
72380;SHT30;60354;47.798;12.472;2022-08-07T19:05:59;19.46;68.35
72380;SHT30;60354;47.798;12.472;2022-08-07T19:17:53;19.08;71.19
72380;SHT30;60354;47.798;12.472;2022-08-07T19:20:31;19.00;71.40
72380;SHT30;60354;47.798;12.472;2022-08-07T19:23:19;19.11;71.02
72380;SHT30;60354;47.798;12.472;2022-08-07T19:25:48;19.12;70.73
72380;SHT30;60354;47.798;12.472;2022-08-07T19:28:21;19.11;70.09
72380;SHT30;60354;47.798;12.472;2022-08-07T19:30:50;19.21;70.00
72380;SHT30;60354;47.798;12.472;2022-08-07T19:33:21;19.18;69.80
72380;SHT30;60354;47.798;12.472;2022-08-07T19:35:52;19.22;69.29
72380;SHT30;60354;47.798;12.472;2022-08-07T19:38:20;19.19;69.01